TimeEET,TemperatureF,Dew PointF,Humidity,Sea Level PressureIn,VisibilityMPH,Wind Direction,Wind SpeedMPH,Gust SpeedMPH,PrecipitationIn,Events,Conditions,WindDirDegrees,DateUTC
12:50 AM,39.2,37.4,93,30.15,-9999.0,Variable,1.2,-,N/A,,Clear,0,2012-11-06 22:50:00
1:50 AM,35.6,35.6,100,30.15,-9999.0,Calm,Calm,-,N/A,,Clear,0,2012-11-06 23:50:00
2:00 AM,36,36,98,,12,Calm,Calm,,,,,,2012-11-07 00:00:00
2:50 AM,35.6,33.8,93,30.18,-9999.0,Variable,1.2,-,N/A,,Clear,0,2012-11-07 00:50:00
3:50 AM,35.6,35.6,100,30.15,-9999.0,NNW,1.2,-,N/A,,Clear,330,2012-11-07 01:50:00
4:50 AM,35.6,33.8,93,30.18,-9999.0,Calm,Calm,-,N/A,,Clear,0,2012-11-07 02:50:00
5:50 AM,35.6,33.8,93,30.18,-9999.0,Variable,1.2,-,N/A,,Clear,0,2012-11-07 03:50:00
6:50 AM,37.4,35.6,93,30.18,6.2,Variable,1.2,-,N/A,,Partly Cloudy,0,2012-11-07 04:50:00
7:50 AM,42.8,39.2,87,30.18,4.3,Calm,Calm,-,N/A,,Partly Cloudy,0,2012-11-07 05:50:00
8:00 AM,43,39,80,,4,Calm,Calm,,,,Mist,,2012-11-07 06:00:00
8:50 AM,51.8,41.0,67,30.18,5.0,Calm,Calm,-,N/A,,Partly Cloudy,0,2012-11-07 06:50:00
9:50 AM,57.2,39.2,51,30.15,6.2,Calm,Calm,-,N/A,,Partly Cloudy,0,2012-11-07 07:50:00
10:50 AM,59.0,39.2,48,30.12,6.2,Variable,2.3,-,N/A,,Partly Cloudy,0,2012-11-07 08:50:00
11:50 AM,62.6,37.4,39,30.09,6.2,WNW,1.2,-,N/A,,Scattered Clouds,290,2012-11-07 09:50:00
12:50 PM,64.4,35.6,34,30.06,6.2,Variable,2.3,-,N/A,,Scattered Clouds,0,2012-11-07 10:50:00
1:50 PM,66.2,35.6,32,30.06,6.2,Calm,Calm,-,N/A,,Scattered Clouds,0,2012-11-07 11:50:00
2:00 PM,65,36,22,,6,Calm,Calm,,,,Scattered Clouds,,2012-11-07 12:00:00
2:50 PM,66.2,35.6,32,30.04,6.2,Calm,Calm,-,N/A,,Scattered Clouds,0,2012-11-07 12:50:00
3:50 PM,62.6,39.2,42,30.04,6.2,South,2.3,-,N/A,,Scattered Clouds,180,2012-11-07 13:50:00
4:50 PM,60.8,39.2,45,30.04,6.2,Variable,2.3,-,N/A,,Mostly Cloudy,0,2012-11-07 14:50:00
5:50 PM,55.4,41.0,58,30.04,6.2,Calm,Calm,-,N/A,,Partly Cloudy,0,2012-11-07 15:50:00
6:50 PM,51.8,41.0,67,30.04,6.2,Variable,2.3,-,N/A,,Partly Cloudy,0,2012-11-07 16:50:00
7:50 PM,50.0,41.0,71,30.04,6.2,Calm,Calm,-,N/A,,Partly Cloudy,0,2012-11-07 17:50:00
8:00 PM,50,41,61,,6,Calm,Calm,,,,Scattered Clouds,,2012-11-07 18:00:00
8:50 PM,50.0,41.0,71,30.04,6.2,Calm,Calm,-,N/A,,Scattered Clouds,0,2012-11-07 18:50:00
9:50 PM,46.4,41.0,81,30.04,6.2,Calm,Calm,-,N/A,,Scattered Clouds,0,2012-11-07 19:50:00
10:50 PM,46.4,41.0,81,30.04,6.2,West,4.6,-,N/A,,Scattered Clouds,260,2012-11-07 20:50:00
11:50 PM,48.2,41.0,76,30.04,6.2,Calm,Calm,-,N/A,,Scattered Clouds,0,2012-11-07 21:50:00